createdAt,value
2019-03-25T00:02:16.949Z,16.40
2019-03-25T00:04:46.880Z,15.53
2019-03-25T00:07:16.790Z,16.23
2019-03-25T00:09:46.743Z,15.28
2019-03-25T00:12:16.644Z,15.75
2019-03-25T00:14:46.589Z,16.57
2019-03-25T00:17:16.531Z,15.80
2019-03-25T00:19:46.440Z,15.63
2019-03-25T00:22:16.375Z,14.68
2019-03-25T00:24:46.280Z,16.15
2019-03-25T00:27:16.213Z,16.02
2019-03-25T00:29:46.126Z,17.02
2019-03-25T00:32:16.063Z,16.67
2019-03-25T00:34:45.968Z,15.53
2019-03-25T00:37:15.909Z,16.02
2019-03-25T00:39:45.819Z,15.70
2019-03-25T00:42:15.759Z,16.05
2019-03-25T00:44:45.673Z,15.83
2019-03-25T00:47:15.673Z,13.55
2019-03-25T00:49:45.569Z,14.83
2019-03-25T00:52:15.557Z,13.88
2019-03-25T00:54:49.852Z,13.90
2019-03-25T00:57:17.023Z,13.20
2019-03-25T00:59:48.940Z,13.15
2019-03-25T01:02:18.540Z,13.62
2019-03-25T01:04:49.522Z,12.93
2019-03-25T01:07:19.493Z,13.18
2019-03-25T01:09:49.392Z,11.83
2019-03-25T01:12:19.316Z,12.10
2019-03-25T01:14:49.219Z,13.50
2019-03-25T01:17:19.174Z,12.85
2019-03-25T01:19:49.083Z,12.30
2019-03-25T01:22:19.065Z,12.47
2019-03-25T01:24:48.967Z,12.53
2019-03-25T01:27:18.891Z,12.60
2019-03-25T01:29:48.856Z,11.90
2019-03-25T01:32:18.778Z,11.95
2019-03-25T01:34:48.723Z,11.78
2019-03-25T01:37:18.811Z,11.50
2019-03-25T01:39:48.784Z,11.93
2019-03-25T01:42:18.736Z,9.98
2019-03-25T01:44:48.681Z,10.45
2019-03-25T01:47:18.618Z,11.48
2019-03-25T01:49:48.564Z,10.00
2019-03-25T01:52:19.552Z,8.88
2019-03-25T01:54:49.512Z,9.23
2019-03-25T01:57:19.486Z,10.03
2019-03-25T01:59:49.423Z,9.43
2019-03-25T02:02:19.328Z,9.13
2019-03-25T02:04:49.261Z,8.65
2019-03-25T02:07:19.170Z,8.63
2019-03-25T02:09:49.115Z,8.68
2019-03-25T02:12:19.038Z,8.95
2019-03-25T02:14:49.001Z,8.98
2019-03-25T02:17:18.948Z,8.20
2019-03-25T02:19:48.917Z,7.92
2019-03-25T02:22:18.812Z,8.73
2019-03-25T02:24:48.835Z,8.18
2019-03-25T02:27:18.752Z,7.55
2019-03-25T02:29:48.713Z,9.03
2019-03-25T02:32:18.715Z,8.50
2019-03-25T02:34:48.631Z,7.70
2019-03-25T02:37:18.527Z,8.18
2019-03-25T02:39:48.473Z,8.53
2019-03-25T02:42:18.594Z,8.35
2019-03-25T02:44:48.496Z,8.60
2019-03-25T02:47:18.422Z,8.68
2019-03-25T02:49:48.338Z,7.85
2019-03-25T02:52:18.244Z,7.90
2019-03-25T02:54:48.193Z,8.03
2019-03-25T02:57:18.083Z,8.15
2019-03-25T02:59:48.015Z,7.90
2019-03-25T03:02:17.930Z,6.87
2019-03-25T03:04:47.861Z,8.03
2019-03-25T03:07:17.783Z,7.37
2019-03-25T03:09:47.719Z,8.30
2019-03-25T03:12:17.680Z,7.45
2019-03-25T03:14:48.584Z,6.75
2019-03-25T03:17:18.508Z,8.23
2019-03-25T03:19:49.523Z,8.58
2019-03-25T03:22:19.511Z,7.47
2019-03-25T03:24:49.446Z,7.33
2019-03-25T03:27:19.375Z,7.97
2019-03-25T03:29:49.333Z,8.33
2019-03-25T03:32:19.306Z,7.83
2019-03-25T03:34:50.143Z,7.30
2019-03-25T03:37:20.107Z,8.25
2019-03-25T03:39:50.065Z,7.83
2019-03-25T03:42:20.322Z,7.55
2019-03-25T03:44:50.273Z,7.92
2019-03-25T03:47:20.224Z,7.42
2019-03-25T03:49:50.188Z,8.05
2019-03-25T03:52:20.409Z,7.55
2019-03-25T03:54:50.488Z,7.28
2019-03-25T03:57:21.422Z,7.12
2019-03-25T03:59:51.930Z,7.95
2019-03-25T04:02:22.155Z,8.55
2019-03-25T04:04:52.107Z,8.08
2019-03-25T04:07:22.113Z,7.58
2019-03-25T04:09:52.069Z,7.95
2019-03-25T04:12:21.986Z,7.08
2019-03-25T04:14:51.952Z,7.22
2019-03-25T04:17:21.883Z,8.78
2019-03-25T04:19:51.849Z,7.55
2019-03-25T04:22:21.769Z,7.10
2019-03-25T04:24:51.713Z,7.67
2019-03-25T04:27:23.788Z,8.88
2019-03-25T04:29:54.702Z,7.55
2019-03-25T04:32:24.911Z,7.28
2019-03-25T04:34:54.869Z,7.67
2019-03-25T04:37:24.824Z,8.55
2019-03-25T04:39:54.765Z,7.55
2019-03-25T04:42:24.671Z,7.40
2019-03-25T04:44:54.600Z,8.40
2019-03-25T04:47:24.553Z,8.73
2019-03-25T04:49:54.486Z,7.80
2019-03-25T04:52:24.393Z,7.05
2019-03-25T04:54:54.300Z,8.58
2019-03-25T04:57:24.224Z,9.00
2019-03-25T04:59:54.127Z,8.55
2019-03-25T05:02:24.123Z,9.73
2019-03-25T05:04:54.057Z,8.85
2019-03-25T05:07:23.983Z,9.75
2019-03-25T05:09:53.884Z,9.70
2019-03-25T05:12:23.826Z,9.30
2019-03-25T05:14:54.701Z,8.98
2019-03-25T05:17:24.620Z,9.70
2019-03-25T05:19:54.531Z,9.33
2019-03-25T05:22:24.445Z,9.35
2019-03-25T05:24:54.388Z,9.08
2019-03-25T05:27:24.360Z,8.83
2019-03-25T05:29:54.242Z,9.43
2019-03-25T05:32:24.145Z,9.13
2019-03-25T05:34:54.079Z,9.53
2019-03-25T05:37:24.005Z,9.35
2019-03-25T05:39:53.925Z,9.48
2019-03-25T05:42:23.829Z,9.05
2019-03-25T05:44:53.777Z,8.23
2019-03-25T05:47:23.679Z,8.55
2019-03-25T05:49:53.630Z,9.75
2019-03-25T05:52:23.573Z,8.55
2019-03-25T05:54:53.477Z,7.90
2019-03-25T05:57:23.422Z,7.58
2019-03-25T05:59:53.313Z,7.75
2019-03-25T06:02:23.245Z,8.03
2019-03-25T06:04:53.158Z,7.05
2019-03-25T06:07:23.129Z,7.03
2019-03-25T06:09:54.913Z,6.10
2019-03-25T06:12:24.930Z,6.15
2019-03-25T06:14:54.836Z,5.90
2019-03-25T06:17:24.839Z,6.15
2019-03-25T06:19:54.747Z,6.08
2019-03-25T06:22:24.687Z,5.92
2019-03-25T06:24:55.685Z,5.65
2019-03-25T06:27:25.693Z,5.55
2019-03-25T06:29:55.628Z,6.40
2019-03-25T06:32:25.584Z,4.85
2019-03-25T06:34:55.539Z,5.85
2019-03-25T06:37:25.469Z,5.33
2019-03-25T06:39:55.423Z,6.53
2019-03-25T06:42:25.313Z,5.67
2019-03-25T06:44:55.245Z,5.30
2019-03-25T06:47:25.189Z,5.30
2019-03-25T06:49:55.126Z,5.22
2019-03-25T06:52:25.054Z,6.03
2019-03-25T06:54:54.982Z,4.55
2019-03-25T06:57:25.726Z,5.62
2019-03-25T06:59:55.939Z,4.67
2019-03-25T07:02:26.057Z,4.85
2019-03-25T07:04:56.040Z,4.25
2019-03-25T07:07:26.038Z,3.95
2019-03-25T07:09:55.984Z,4.10
2019-03-25T07:12:25.919Z,4.45
2019-03-25T07:14:55.854Z,4.37
2019-03-25T07:17:25.791Z,3.83
2019-03-25T07:19:55.764Z,3.98
2019-03-25T07:22:25.685Z,3.55
2019-03-25T07:24:55.633Z,3.65
2019-03-25T07:27:36.123Z,3.65
2019-03-25T07:29:57.136Z,3.87
2019-03-25T07:32:27.056Z,3.42
2019-03-25T07:34:57.006Z,3.22
2019-03-25T07:37:26.944Z,3.85
2019-03-25T07:39:56.962Z,4.00
2019-03-25T07:42:26.938Z,3.50
2019-03-25T07:44:56.953Z,3.67
2019-03-25T07:47:26.882Z,3.65
2019-03-25T07:49:56.863Z,3.83
2019-03-25T07:52:26.996Z,3.83
2019-03-25T07:54:56.966Z,4.30
2019-03-25T07:57:26.939Z,4.85
2019-03-25T07:59:56.929Z,3.87
2019-03-25T08:02:27.819Z,3.75
2019-03-25T08:04:57.785Z,4.28
2019-03-25T08:07:27.782Z,4.45
2019-03-25T08:09:57.847Z,4.70
2019-03-25T08:12:27.758Z,3.40
2019-03-25T08:14:57.730Z,4.17
2019-03-25T08:17:27.684Z,4.47
2019-03-25T08:19:57.664Z,4.72
2019-03-25T08:22:27.607Z,5.50
2019-03-25T08:24:57.532Z,5.40
2019-03-25T08:27:27.508Z,5.25
2019-03-25T08:29:57.488Z,5.85
2019-03-25T08:32:27.463Z,5.65
2019-03-25T08:34:57.408Z,6.75
2019-03-25T08:37:27.384Z,7.35
2019-03-25T08:39:57.285Z,7.58
2019-03-25T08:42:27.284Z,7.53
2019-03-25T08:44:57.184Z,8.93
2019-03-25T08:47:27.191Z,8.05
2019-03-25T08:49:57.120Z,7.53
2019-03-25T08:52:28.124Z,7.97
2019-03-25T08:54:58.021Z,7.20
2019-03-25T08:57:27.961Z,9.20
2019-03-25T08:59:57.951Z,8.00
2019-03-25T09:02:28.789Z,7.53
2019-03-25T09:04:58.707Z,9.78
2019-03-25T09:07:28.920Z,9.45
2019-03-25T09:09:58.839Z,9.48
2019-03-25T09:12:28.789Z,9.85
2019-03-25T09:14:58.660Z,7.80
2019-03-25T09:17:28.593Z,9.45
2019-03-25T09:19:58.539Z,9.28
2019-03-25T09:22:28.440Z,10.82
2019-03-25T09:24:58.491Z,11.08
2019-03-25T09:27:29.335Z,10.48
2019-03-25T09:29:59.221Z,11.08
2019-03-25T09:32:29.114Z,11.63
2019-03-25T09:34:59.048Z,10.43
2019-03-25T09:37:29.038Z,10.60
2019-03-25T09:39:58.977Z,10.23
2019-03-25T09:42:28.888Z,10.63
2019-03-25T09:44:58.830Z,11.03
2019-03-25T09:47:28.782Z,10.15
2019-03-25T09:49:59.708Z,10.38
2019-03-25T09:52:38.098Z,9.60
2019-03-25T09:55:01.181Z,11.05
2019-03-25T09:57:31.089Z,10.88
2019-03-25T10:00:01.147Z,10.13
2019-03-25T10:02:31.121Z,9.78
2019-03-25T10:05:01.055Z,9.33
2019-03-25T10:07:31.127Z,7.87
2019-03-25T10:10:01.116Z,7.42
2019-03-25T10:12:31.122Z,6.15
2019-03-25T10:15:02.117Z,6.37
2019-03-25T10:17:32.055Z,6.30
2019-03-25T10:20:02.046Z,6.00
2019-03-25T10:22:31.926Z,5.60
2019-03-25T10:25:01.941Z,5.25
2019-03-25T10:27:31.889Z,5.15
2019-03-25T10:30:01.855Z,2.60
2019-03-25T10:32:32.738Z,2.15
2019-03-25T10:35:02.718Z,2.37
2019-03-25T10:37:32.605Z,3.47
2019-03-25T10:40:02.529Z,3.17
2019-03-25T10:42:32.614Z,4.50
2019-03-25T10:45:02.533Z,3.85
2019-03-25T10:47:32.522Z,4.12
2019-03-25T10:50:03.441Z,3.70
2019-03-25T10:52:33.422Z,3.95
2019-03-25T10:55:03.605Z,3.70
2019-03-25T10:57:33.532Z,3.85
2019-03-25T11:00:03.560Z,4.62
2019-03-25T11:02:34.937Z,4.85
2019-03-25T11:05:05.229Z,4.83
2019-03-25T11:07:35.331Z,4.37
2019-03-25T11:10:05.550Z,4.30
2019-03-25T11:12:35.633Z,4.55
2019-03-25T11:15:06.217Z,4.12
2019-03-25T11:17:36.240Z,4.15
2019-03-25T11:20:06.435Z,3.80
2019-03-25T11:22:36.476Z,3.80
2019-03-25T11:25:07.143Z,3.37
2019-03-25T11:27:37.028Z,2.62
2019-03-25T11:30:07.342Z,3.02
2019-03-25T11:32:37.235Z,3.15
2019-03-25T11:35:07.359Z,3.98
2019-03-25T11:37:58.442Z,3.17
2019-03-25T11:40:28.343Z,2.60
2019-03-25T11:42:58.404Z,3.27
2019-03-25T11:45:30.794Z,2.65
2019-03-25T11:48:00.745Z,2.75
2019-03-25T11:50:30.688Z,2.75
2019-03-25T11:53:00.561Z,2.22
2019-03-25T11:55:30.475Z,2.22
2019-03-25T11:58:00.366Z,2.65
2019-03-25T12:00:30.407Z,2.35
2019-03-25T12:03:00.367Z,2.37
2019-03-25T12:05:30.257Z,2.30
2019-03-25T12:08:00.158Z,3.15
2019-03-25T12:10:30.078Z,2.20
2019-03-25T12:13:00.065Z,2.37
2019-03-25T12:15:30.030Z,2.10
2019-03-25T12:17:59.936Z,2.35
2019-03-25T12:20:29.824Z,1.80
2019-03-25T12:22:59.794Z,1.82
2019-03-25T12:25:29.768Z,2.00
2019-03-25T12:27:59.668Z,1.82
2019-03-25T12:30:29.584Z,1.75
2019-03-25T12:33:04.014Z,1.50
2019-03-25T12:35:31.075Z,1.77
2019-03-25T12:38:00.965Z,1.80
2019-03-25T12:40:30.980Z,1.80
2019-03-25T12:43:00.900Z,1.72
2019-03-25T12:45:30.846Z,1.70
2019-03-25T12:48:00.828Z,2.12
2019-03-25T12:50:30.770Z,1.70
2019-03-25T12:53:00.667Z,1.40
2019-03-25T12:55:30.580Z,1.50
2019-03-25T12:58:00.486Z,1.55
2019-03-25T13:00:37.308Z,2.00
2019-03-25T13:03:07.237Z,1.80
2019-03-25T13:05:37.124Z,2.50
2019-03-25T13:08:07.101Z,2.17
2019-03-25T13:10:36.976Z,1.80
2019-03-25T13:13:06.933Z,2.00
2019-03-25T13:15:36.849Z,1.35
2019-03-25T13:18:06.780Z,1.80
2019-03-25T13:20:36.644Z,1.70
2019-03-25T13:23:06.609Z,1.85
2019-03-25T13:25:36.506Z,1.70
2019-03-25T13:28:06.423Z,1.80
2019-03-25T13:30:36.317Z,1.52
2019-03-25T13:33:06.347Z,1.50
2019-03-25T13:35:36.215Z,1.55
2019-03-25T13:38:06.175Z,2.17
2019-03-25T13:40:36.078Z,1.67
2019-03-25T13:43:06.002Z,1.30
2019-03-25T13:45:35.938Z,1.27
2019-03-25T13:48:05.849Z,1.50
2019-03-25T13:50:35.760Z,1.50
2019-03-25T13:53:05.687Z,1.70
2019-03-25T13:55:35.571Z,1.67
2019-03-25T13:58:05.481Z,1.70
2019-03-25T14:00:36.247Z,1.35
2019-03-25T14:03:06.161Z,2.27
2019-03-25T14:05:36.052Z,1.75
2019-03-25T14:08:06.046Z,1.60
2019-03-25T14:10:36.132Z,1.40
2019-03-25T14:13:06.065Z,1.50
2019-03-25T14:15:36.113Z,1.90
2019-03-25T14:18:06.160Z,1.50
2019-03-25T14:20:36.079Z,1.90
2019-03-25T14:23:06.004Z,1.62
2019-03-25T14:25:35.929Z,1.42
2019-03-25T14:28:05.883Z,1.40
2019-03-25T14:30:35.815Z,1.67
2019-03-25T14:33:05.734Z,1.57
2019-03-25T14:35:35.655Z,1.50
2019-03-25T14:38:05.607Z,1.92
2019-03-25T14:40:35.546Z,2.10
2019-03-25T14:43:05.525Z,1.92
2019-03-25T14:45:35.481Z,2.10
2019-03-25T14:48:05.353Z,1.92
2019-03-25T14:50:35.269Z,1.67
2019-03-25T14:53:05.154Z,1.80
2019-03-25T14:55:35.091Z,1.65
2019-03-25T14:58:05.022Z,2.10
2019-03-25T15:00:34.931Z,1.72
2019-03-25T15:03:04.866Z,1.85
2019-03-25T15:05:34.819Z,1.32
2019-03-25T15:08:04.709Z,1.60
2019-03-25T15:10:34.599Z,2.00
2019-03-25T15:13:05.515Z,1.75
2019-03-25T15:15:36.587Z,1.80
2019-03-25T15:18:15.145Z,1.98
2019-03-25T15:20:37.973Z,1.65
2019-03-25T15:23:07.930Z,2.00
2019-03-25T15:25:37.789Z,1.62
2019-03-25T15:28:07.727Z,1.85
2019-03-25T15:30:37.608Z,1.85
2019-03-25T15:33:07.545Z,1.67
2019-03-25T15:35:37.435Z,2.00
2019-03-25T15:38:07.374Z,2.20
2019-03-25T15:40:37.346Z,2.33
2019-03-25T15:43:07.304Z,2.20
2019-03-25T15:45:37.213Z,2.08
2019-03-25T15:48:07.227Z,2.37
2019-03-25T15:50:37.193Z,2.08
2019-03-25T15:53:07.125Z,2.08
2019-03-25T15:55:37.033Z,2.20
2019-03-25T15:58:06.976Z,2.12
2019-03-25T16:00:46.983Z,1.98
2019-03-25T16:03:08.463Z,2.20
2019-03-25T16:05:38.451Z,2.33
2019-03-25T16:08:08.409Z,2.15
2019-03-25T16:10:38.347Z,2.52
2019-03-25T16:13:08.332Z,2.70
2019-03-25T16:15:39.193Z,2.42
2019-03-25T16:18:09.503Z,2.52
2019-03-25T16:20:39.385Z,2.95
2019-03-25T16:23:09.339Z,2.95
2019-03-25T16:25:39.245Z,3.10
2019-03-25T16:28:09.207Z,3.52
2019-03-25T16:30:39.130Z,3.62
2019-03-25T16:33:09.076Z,3.62
2019-03-25T16:35:39.001Z,3.60
2019-03-25T16:38:08.927Z,3.40
2019-03-25T16:40:38.843Z,1.95
2019-03-25T16:43:08.795Z,1.70
2019-03-25T16:45:38.709Z,1.82
2019-03-25T16:48:08.654Z,1.65
2019-03-25T16:50:38.603Z,2.08
2019-03-25T16:53:08.510Z,1.98
2019-03-25T16:55:38.419Z,1.75
2019-03-25T16:58:08.363Z,2.80
2019-03-25T17:00:38.422Z,2.47
2019-03-25T17:03:08.333Z,1.77
2019-03-25T17:05:38.248Z,2.27
2019-03-25T17:08:08.227Z,1.75
2019-03-25T17:10:38.156Z,2.08
2019-03-25T17:13:08.046Z,1.75
2019-03-25T17:15:38.001Z,2.27
2019-03-25T17:18:07.893Z,2.10
2019-03-25T17:20:37.810Z,2.17
2019-03-25T17:23:07.761Z,2.10
2019-03-25T17:25:38.645Z,2.20
2019-03-25T17:28:08.546Z,2.40
2019-03-25T17:30:38.462Z,5.42
2019-03-25T17:33:08.339Z,2.95
2019-03-25T17:35:38.259Z,2.90
2019-03-25T17:38:08.157Z,3.00
2019-03-25T17:40:38.094Z,3.17
2019-03-25T17:43:07.959Z,2.95
2019-03-25T17:45:37.999Z,2.25
2019-03-25T17:48:07.859Z,2.40
2019-03-25T17:50:37.781Z,2.20
2019-03-25T17:53:07.801Z,2.05
2019-03-25T17:55:37.779Z,2.27
2019-03-25T17:58:08.246Z,2.05
2019-03-25T18:00:59.887Z,2.12
2019-03-25T18:03:29.701Z,2.10
2019-03-25T18:05:59.634Z,1.75
2019-03-25T18:08:29.535Z,3.67
2019-03-25T18:11:00.369Z,2.47
2019-03-25T18:13:30.301Z,1.98
2019-03-25T18:16:00.201Z,7.30
2019-03-25T18:18:30.154Z,3.15
2019-03-25T18:21:00.052Z,16.77
2019-03-25T18:23:29.979Z,5.55
2019-03-25T18:25:59.890Z,6.55
2019-03-25T18:28:29.813Z,2.33
2019-03-25T18:30:59.707Z,2.27
2019-03-25T18:33:29.655Z,2.37
2019-03-25T18:35:59.589Z,2.47
2019-03-25T18:38:29.563Z,2.83
2019-03-25T18:40:59.439Z,2.30
2019-03-25T18:43:29.407Z,2.40
2019-03-25T18:45:59.349Z,2.40
2019-03-25T18:48:29.355Z,2.40
2019-03-25T18:50:59.303Z,2.47
2019-03-25T18:53:29.255Z,2.47
2019-03-25T18:55:59.138Z,2.33
2019-03-25T18:58:29.192Z,2.72
2019-03-25T19:00:59.062Z,2.30
2019-03-25T19:03:29.080Z,2.77
2019-03-25T19:05:59.479Z,2.62
2019-03-25T19:11:39.748Z,2.92
2019-03-25T19:14:09.876Z,2.90
2019-03-25T19:16:40.255Z,6.17
2019-03-25T19:19:10.195Z,3.12
2019-03-25T19:21:40.090Z,2.75
2019-03-25T19:24:10.003Z,2.83
2019-03-25T19:26:39.879Z,3.33
2019-03-25T19:29:16.030Z,2.87
2019-03-25T19:31:51.209Z,3.42
2019-03-25T19:34:22.673Z,4.67
2019-03-25T19:36:52.555Z,3.77
2019-03-25T19:39:22.481Z,3.80
2019-03-25T19:41:52.471Z,2.72
2019-03-25T19:44:22.574Z,3.20
2019-03-25T19:46:52.417Z,5.72
2019-03-25T19:49:22.400Z,4.40
2019-03-25T19:51:52.319Z,3.10
2019-03-25T19:54:22.233Z,3.33
2019-03-25T19:56:52.156Z,2.87
2019-03-25T19:59:22.208Z,3.90
2019-03-25T20:01:52.131Z,3.27
2019-03-25T20:04:22.066Z,3.10
2019-03-25T20:06:51.926Z,4.05
2019-03-25T20:09:21.932Z,3.62
2019-03-25T20:11:51.960Z,3.65
2019-03-25T20:14:22.104Z,4.25
2019-03-25T20:16:51.969Z,4.03
2019-03-25T20:19:21.882Z,4.12
2019-03-25T20:21:51.815Z,4.08
2019-03-25T20:24:21.773Z,3.98
2019-03-25T20:26:52.595Z,3.85
2019-03-25T20:29:22.569Z,3.80
2019-03-25T20:31:52.453Z,3.87
2019-03-25T20:34:22.472Z,5.10
2019-03-25T20:36:52.345Z,3.15
2019-03-25T20:39:22.314Z,4.05
2019-03-25T20:41:52.187Z,3.65
2019-03-25T20:44:22.156Z,4.03
2019-03-25T20:46:52.094Z,3.72
2019-03-25T20:49:22.032Z,3.25
2019-03-25T20:51:52.051Z,3.45
2019-03-25T20:54:22.037Z,3.58
2019-03-25T20:56:51.993Z,3.45
2019-03-25T20:59:21.925Z,3.55
2019-03-25T21:01:51.767Z,3.60
2019-03-25T21:04:21.897Z,3.92
2019-03-25T21:06:54.472Z,3.20
2019-03-25T21:09:23.552Z,4.08
2019-03-25T21:11:53.504Z,3.42
2019-03-25T21:14:25.020Z,4.00
2019-03-25T21:16:54.935Z,3.72
2019-03-25T21:19:24.870Z,3.67
2019-03-25T21:21:54.755Z,3.58
2019-03-25T21:24:24.819Z,4.37
2019-03-25T21:26:54.730Z,3.37
2019-03-25T21:29:25.713Z,4.35
2019-03-25T21:31:55.729Z,3.37
2019-03-25T21:34:25.703Z,3.33
2019-03-25T21:36:55.560Z,3.95
2019-03-25T21:39:25.698Z,2.87
2019-03-25T21:41:55.694Z,3.45
2019-03-25T21:44:25.708Z,2.92
2019-03-25T21:46:55.533Z,3.87
2019-03-25T21:49:25.552Z,3.35
2019-03-25T21:51:55.701Z,3.20
2019-03-25T21:54:25.649Z,3.58
2019-03-25T21:56:55.561Z,3.62
2019-03-25T21:59:25.581Z,3.50
2019-03-25T22:01:55.462Z,3.87
2019-03-25T22:04:25.487Z,3.60
2019-03-25T22:06:55.538Z,3.85
2019-03-25T22:09:25.431Z,3.98
2019-03-25T22:11:55.391Z,3.62
2019-03-25T22:14:25.448Z,3.65
2019-03-25T22:16:55.373Z,3.70
2019-03-25T22:19:25.387Z,4.17
2019-03-25T22:21:55.290Z,3.50
2019-03-25T22:24:25.294Z,4.20
2019-03-25T22:26:55.254Z,3.98
2019-03-25T22:29:25.199Z,3.75
2019-03-25T22:31:55.096Z,3.77
2019-03-25T22:34:25.107Z,4.08
2019-03-25T22:36:54.997Z,3.95
2019-03-25T22:39:24.942Z,5.25
2019-03-25T22:41:54.847Z,4.25
2019-03-25T22:44:24.793Z,4.25
2019-03-25T22:46:54.731Z,4.37
2019-03-25T22:49:24.670Z,4.20
2019-03-25T22:51:54.584Z,3.85
2019-03-25T22:54:24.465Z,3.80
2019-03-25T22:56:54.384Z,3.80
2019-03-25T22:59:24.283Z,4.53
2019-03-25T23:01:54.236Z,4.08
2019-03-25T23:04:24.118Z,3.80
2019-03-25T23:06:54.094Z,4.40
2019-03-25T23:09:24.045Z,3.47
2019-03-25T23:11:55.587Z,4.45
2019-03-25T23:14:26.469Z,3.83
2019-03-25T23:16:56.452Z,4.65
2019-03-25T23:19:26.397Z,4.35
2019-03-25T23:21:56.354Z,4.45
2019-03-25T23:24:26.272Z,5.20
2019-03-25T23:26:56.310Z,4.35
2019-03-25T23:29:26.286Z,4.08
2019-03-25T23:31:56.248Z,4.60
2019-03-25T23:34:26.236Z,4.78
2019-03-25T23:36:56.278Z,5.20
2019-03-25T23:39:26.271Z,4.22
2019-03-25T23:41:56.280Z,5.72
2019-03-25T23:44:26.236Z,5.10
2019-03-25T23:46:56.186Z,5.92
2019-03-25T23:49:26.126Z,5.30
2019-03-25T23:51:56.094Z,5.47
2019-03-25T23:54:25.985Z,5.37
2019-03-25T23:56:56.027Z,6.28
2019-03-25T23:59:25.981Z,5.90
